createdAt,value
2018-03-26T00:04:00.672Z,12.70
2018-03-26T00:14:19.271Z,26.67
2018-03-26T00:24:38.735Z,21.87
2018-03-26T00:34:47.564Z,26.67
2018-03-26T00:45:01.604Z,23.20
2018-03-26T00:55:25.157Z,25.00
2018-03-26T01:05:35.964Z,23.47
2018-03-26T01:15:50.142Z,24.13
2018-03-26T01:26:11.185Z,23.27
2018-03-26T01:36:22.385Z,21.93
2018-03-26T01:46:38.521Z,22.53
2018-03-26T01:56:58.104Z,22.20
2018-03-26T02:07:13.256Z,20.60
2018-03-26T02:17:28.373Z,22.70
2018-03-26T02:27:43.687Z,27.47
2018-03-26T02:38:01.665Z,32.20
2018-03-26T02:48:16.674Z,31.53
2018-03-26T02:58:27.782Z,32.77
2018-03-26T03:08:42.855Z,29.50
2018-03-26T03:18:52.227Z,29.40
2018-03-26T03:29:16.166Z,28.20
2018-03-26T03:39:30.210Z,27.33
2018-03-26T03:49:42.507Z,26.90
2018-03-26T03:59:56.530Z,24.93
2018-03-26T04:10:09.501Z,24.47
2018-03-26T04:20:25.232Z,24.40
2018-03-26T04:30:38.258Z,22.83
2018-03-26T04:40:53.333Z,23.33
2018-03-26T04:51:04.114Z,21.40
2018-03-26T05:01:13.738Z,21.67
2018-03-26T05:11:25.728Z,21.73
2018-03-26T05:21:40.393Z,20.50
2018-03-26T05:31:58.184Z,20.10
2018-03-26T05:42:10.036Z,19.33
2018-03-26T05:52:26.244Z,19.60
2018-03-26T06:02:42.141Z,18.80
2018-03-26T06:12:59.235Z,18.60
2018-03-26T06:33:29.124Z,17.10
2018-03-26T06:43:49.694Z,17.23
2018-03-26T06:54:03.629Z,16.63
2018-03-26T07:04:18.517Z,15.73
2018-03-26T07:14:31.178Z,15.70
2018-03-26T07:24:41.802Z,15.37
2018-03-26T07:34:58.503Z,15.23
2018-03-26T07:45:18.708Z,15.10
2018-03-26T07:55:32.462Z,15.10
2018-03-26T08:05:50.292Z,14.60
2018-03-26T08:16:04.020Z,14.30
2018-03-26T08:26:16.704Z,13.37
2018-03-26T08:36:40.044Z,13.27
2018-03-26T08:46:52.079Z,12.50
2018-03-26T08:57:06.212Z,12.83
2018-03-26T09:07:20.255Z,12.57
2018-03-26T09:17:31.665Z,13.00
2018-03-26T09:27:48.259Z,11.83
2018-03-26T09:38:05.500Z,12.17
2018-03-26T09:48:16.942Z,11.33
2018-03-26T09:58:27.470Z,11.10
2018-03-26T10:08:37.340Z,11.07
2018-03-26T10:18:48.232Z,11.33
2018-03-26T10:29:05.250Z,10.77
2018-03-26T10:39:16.003Z,10.80
2018-03-26T10:49:38.931Z,10.43
2018-03-26T10:59:55.780Z,10.30
2018-03-26T11:10:09.624Z,10.20
2018-03-26T11:20:21.386Z,9.50
2018-03-26T11:30:36.254Z,9.50
2018-03-26T11:40:48.080Z,10.10
2018-03-26T11:51:12.890Z,9.10
2018-03-26T12:01:31.273Z,9.70
2018-03-26T12:11:43.115Z,9.00
2018-03-26T12:21:58.881Z,9.70
2018-03-26T12:32:11.409Z,10.10
2018-03-26T12:42:26.840Z,9.57
2018-03-26T12:53:04.344Z,9.13
2018-03-26T13:17:48.891Z,10.37
2018-03-26T13:28:00.726Z,9.97
2018-03-26T13:38:14.254Z,9.40
2018-03-26T13:48:29.488Z,9.60
2018-03-26T13:58:43.553Z,10.33
2018-03-26T14:09:14.387Z,9.50
2018-03-26T14:19:33.092Z,9.20
2018-03-26T14:29:45.759Z,9.93
2018-03-26T14:40:03.284Z,9.80
2018-03-26T14:50:27.419Z,9.37
2018-03-26T15:00:40.685Z,9.70
2018-03-26T15:10:52.005Z,9.03
2018-03-26T15:21:03.920Z,10.00
2018-03-26T15:31:23.082Z,8.77
2018-03-26T15:41:32.427Z,9.37
2018-03-26T15:51:43.157Z,9.20
2018-03-26T16:01:59.346Z,9.13
2018-03-26T16:12:07.873Z,9.13
2018-03-26T16:22:21.022Z,9.00
2018-03-26T16:32:32.015Z,9.47
2018-03-26T16:42:52.731Z,8.83
2018-03-26T16:53:04.832Z,9.23
2018-03-26T17:03:19.119Z,9.50
2018-03-26T17:13:36.123Z,9.53
2018-03-26T17:23:44.481Z,9.50
2018-03-26T17:33:53.042Z,8.90
2018-03-26T17:44:06.400Z,9.40
2018-03-26T17:54:15.846Z,8.80
2018-03-26T18:04:27.522Z,9.07
2018-03-26T18:14:37.451Z,9.40
2018-03-26T18:24:47.274Z,8.87
2018-03-26T18:34:56.864Z,9.47
2018-03-26T18:45:05.796Z,9.87
2018-03-26T18:55:22.708Z,9.17
2018-03-26T19:05:34.527Z,8.87
2018-03-26T19:15:47.400Z,9.57
2018-03-26T19:25:58.133Z,9.10
2018-03-26T19:36:07.532Z,10.00
2018-03-26T19:46:17.810Z,10.17
2018-03-26T19:56:30.576Z,9.17
2018-03-26T20:06:42.244Z,9.47
2018-03-26T20:16:50.513Z,9.30
2018-03-26T20:26:59.107Z,9.53
2018-03-26T20:37:12.236Z,9.70
2018-03-26T20:47:21.870Z,9.30
2018-03-26T20:57:33.951Z,9.93
2018-03-26T21:07:42.169Z,10.80
2018-03-26T21:17:51.971Z,9.87
2018-03-26T21:28:08.664Z,10.87
2018-03-26T21:38:18.266Z,11.53
2018-03-26T21:48:34.594Z,10.67
2018-03-26T21:58:50.513Z,11.20
2018-03-26T22:09:09.898Z,11.10
2018-03-26T22:19:23.492Z,11.10
2018-03-26T22:29:35.003Z,10.73
2018-03-26T22:39:47.643Z,11.00
2018-03-26T22:50:03.076Z,10.77
2018-03-26T23:00:13.835Z,11.00
2018-03-26T23:10:24.214Z,10.63
2018-03-26T23:20:40.890Z,10.73
2018-03-26T23:30:58.558Z,11.00
2018-03-26T23:41:21.351Z,11.30
2018-03-26T23:51:44.320Z,10.73
